Terminal Aerodrome Forecast
Issued by NWS Portland, OR

Home | Current Version | Previous Version | Text Only | Print | Product List | Glossary On
Versions: 1 2 3 4 5 6 7 8 9 10 11 12 13 14 15 16 17 18 19 20 21 22
000
FTUS46 KPQR 222127 AAA
TAFTTD
TAF AMD
KTTD 222127Z 2221/2318 09010KT 5SM -RA BKN025 OVC040 WS020/20030KT
      TEMPO 2221/2223 00000KT 2SM RA BKN008 OVC020
     FM222300 10010KT P6SM -RA SCT025 OVC035
     FM230900 21010KT P6SM -RA BKN025 OVC035
     FM231600 10005KT P6SM -SHRA SCT025 BKN040=

USA.gov is the U.S. government's official web portal to all federal, state and local government web resources and services.